ADDS METAR Data INFO
IDs: Format: Raw Decoded Include TAF

Data at: 0709 UTC 19 Oct 2017

KROA 190654Z 00000KT 10SM CLR 07/06 A3032 RMK AO2 SLP266 T00720056
KROA 190554Z 00000KT 10SM CLR 08/06 A3033 RMK AO2 SLP270 T00830056 10139 20078 58006
KROA 190454Z 00000KT 10SM CLR 08/06 A3034 RMK AO2 SLP273 T00780056 402000028
KROA 190354Z 00000KT 10SM CLR 09/06 A3035 RMK AO2 SLP277 T00940056
KROA 190254Z 00000KT 10SM CLR 09/06 A3035 RMK AO2 SLP278 T00940056 53003
KROA 190154Z 00000KT 10SM CLR 11/06 A3035 RMK AO2 SLP277 T01060061
KROA 190054Z 00000KT 10SM CLR 12/05 A3034 RMK AO2 SLP276 T01170050
KROA 182354Z 00000KT 10SM CLR 13/05 A3034 RMK AO2 SLP277 T01330050 10200 20133 53003
KROA 182254Z 11004KT 10SM CLR 16/03 A3034 RMK AO2 SLP272 T01610033
KROA 182154Z 13007KT 10SM CLR 18/04 A3033 RMK AO2 SLP269 T01780039
KROA 182054Z 12007KT 10SM CLR 19/04 A3033 RMK AO2 SLP271 T01940044 56013
KROA 181954Z 11008KT 10SM CLR 19/03 A3034 RMK AO2 SLP274 T01940028
KROA 181854Z 09005KT 10SM CLR 19/05 A3036 RMK AO2 SLP279 T01940050
KROA 181754Z 10005KT 10SM CLR 18/06 A3038 RMK AO2 SLP285 T01830061 10183 20039 58018
KROA 181654Z 08005KT 10SM CLR 17/05 A3041 RMK AO2 SLP298 T01670050
KROA 181554Z 00000KT 10SM CLR 15/06 A3043 RMK AO2 SLP303 T01500056
KROA 181454Z 00000KT 10SM CLR 13/06 A3043 RMK AO2 SLP304 T01280056 51011
KROA 181354Z 00000KT 10SM CLR 09/06 A3043 RMK AO2 SLP304 T00940056
KROA 181254Z 00000KT 10SM CLR 08/04 A3041 RMK AO2 SLP299 T00780044
KROA 181154Z 32003KT 10SM CLR 04/03 A3039 RMK AO2 SLP294 T00390033 10061 20028 53008
KROA 181054Z 00000KT 10SM CLR 04/03 A3038 RMK AO2 SLP290 T00440033
KROA 180954Z 00000KT 10SM CLR 05/03 A3037 RMK AO2 SLP285 T00500033
KROA 180854Z 01003KT 10SM CLR 05/04 A3037 RMK AO2 SLP284 T00500039 51005
KROA 180754Z 20003KT 10SM CLR 05/04 A3036 RMK AO2 SLP282 T00500039
KROA 180654Z 00000KT 10SM CLR 05/04 A3036 RMK AO2 SLP281 T00500039
KROA 180554Z 00000KT 10SM CLR 06/04 A3035 RMK AO2 SLP278 T00610039 10133 20056 55005
KROA 180454Z 29003KT 10SM CLR 06/04 A3035 RMK AO2 SLP277 T00560039 401780039
KROA 180354Z 00000KT 10SM CLR 08/05 A3036 RMK AO2 SLP279 T00780050
KROA 180254Z 00000KT 10SM CLR 08/04 A3037 RMK AO2 SLP284 T00830044 51014
KROA 180154Z 00000KT 10SM CLR 12/04 A3036 RMK AO2 SLP279 T01170044
KROA 180054Z 00000KT 10SM CLR 11/04 A3034 RMK AO2 SLP275 T01110039
KROA 172354Z 00000KT 10SM CLR 13/03 A3033 RMK AO2 SLP271 T01280033 10178 20122 53009
KROA 172254Z 00000KT 10SM CLR 16/01 A3031 RMK AO2 SLP262 T01560011
KROA 172154Z 00000KT 10SM CLR 17/01 A3029 RMK AO2 SLP258 T01670011
KROA 172054Z VRB05KT 10SM CLR 17/02 A3030 RMK AO2 SLP260 T01720017 56017
KROA 171954Z VRB04KT 10SM CLR 17/02 A3031 RMK AO2 SLP264 T01720017